Time;durP1;ratioP1;P1;durP2;ratioP2;P2;SDS_P1;SDS_P2;PMS_P1;PMS_P2;Temp;Humidity;BMP_temperature;BMP_pressure;BME280_temperature;BME280_humidity;BME280_pressure;Samples;Min_cycle;Max_cycle;Signal;HPM_P1;HPM_P2
2024/04/12 00:01:10;;;;;;;20.45;10.38;;;;;;;5.81;100.00;98173.03;5351618;26;20573;-67
2024/04/12 00:03:38;;;;;;;43.10;16.03;;;;;;;5.98;100.00;98174.38;5368405;26;20077;-67
2024/04/12 00:06:15;;;;;;;16.25;10.25;;;;;;;6.07;100.00;98175.31;5352094;26;20013;-68
2024/04/12 00:08:50;;;;;;;18.63;9.75;;;;;;;6.22;100.00;98168.78;5365437;26;20078;-67
2024/04/12 00:11:19;;;;;;;23.05;11.07;;;;;;;6.12;100.00;98177.94;5352924;26;20004;-67
2024/04/12 00:13:46;;;;;;;20.75;10.50;;;;;;;5.99;100.00;98176.00;5362491;26;20035;-68
2024/04/12 00:16:16;;;;;;;15.10;9.40;;;;;;;5.78;100.00;98179.09;5354130;26;20015;-68
2024/04/12 00:18:45;;;;;;;18.02;9.60;;;;;;;5.65;100.00;98188.78;5361281;26;20371;-69
2024/04/12 00:21:11;;;;;;;15.80;8.53;;;;;;;5.64;100.00;98191.84;5361553;26;19999;-68
2024/04/12 00:23:40;;;;;;;13.23;8.57;;;;;;;5.68;100.00;98192.84;5388924;26;20707;-68
2024/04/12 00:26:06;;;;;;;15.48;8.70;;;;;;;5.74;100.00;98202.50;5379676;26;20004;-68
2024/04/12 00:28:33;;;;;;;13.20;8.23;;;;;;;5.72;100.00;98193.84;5366635;26;20442;-68
2024/04/12 00:31:01;;;;;;;14.68;9.10;;;;;;;5.84;100.00;98194.19;5378607;26;20000;-68
2024/04/12 00:33:32;;;;;;;14.50;9.18;;;;;;;5.84;100.00;98191.47;5361283;26;19999;-68
2024/04/12 00:36:08;;;;;;;17.88;8.52;;;;;;;5.96;100.00;98195.63;5365182;26;20075;-68
2024/04/12 00:38:35;;;;;;;17.25;9.95;;;;;;;5.88;100.00;98188.97;5365196;26;20442;-67
2024/04/12 00:41:12;;;;;;;11.60;8.07;;;;;;;5.69;100.00;98192.53;5366757;26;20025;-67
2024/04/12 00:43:49;;;;;;;12.82;8.52;;;;;;;5.67;100.00;98194.75;5355538;26;20307;-66
2024/04/12 00:46:23;;;;;;;15.45;8.68;;;;;;;5.73;100.00;98198.19;5351659;26;20004;-67
2024/04/12 00:48:53;;;;;;;10.68;7.57;;;;;;;5.79;100.00;98188.03;5359844;26;20015;-67
2024/04/12 00:51:21;;;;;;;14.73;7.68;;;;;;;5.74;100.00;98195.19;5358050;26;20462;-66
2024/04/12 00:53:48;;;;;;;14.07;7.82;;;;;;;5.69;100.00;98192.53;5360678;26;19999;-69
2024/04/12 00:56:15;;;;;;;15.23;8.35;;;;;;;5.42;100.00;98197.88;5367391;26;20001;-67
2024/04/12 00:58:47;;;;;;;16.35;8.25;;;;;;;5.17;100.00;98194.47;5359278;26;19996;-68
2024/04/12 01:01:16;;;;;;;16.52;8.65;;;;;;;5.02;100.00;98200.09;5360497;26;20004;-68
2024/04/12 01:03:48;;;;;;;17.58;9.25;;;;;;;4.76;100.00;98198.53;5359255;26;20042;-68
2024/04/12 01:06:18;;;;;;;12.57;8.75;;;;;;;4.66;100.00;98198.66;5370607;26;20785;-68
2024/04/12 01:08:44;;;;;;;15.15;9.30;;;;;;;4.72;100.00;98199.44;5364673;26;20001;-68
2024/04/12 01:11:13;;;;;;;16.80;10.38;;;;;;;4.54;100.00;98196.41;5356017;26;20008;-69
2024/04/12 01:13:41;;;;;;;17.35;9.75;;;;;;;4.50;100.00;98200.78;5361980;26;20016;-69
2024/04/12 01:16:07;;;;;;;21.60;10.55;;;;;;;4.44;100.00;98201.13;5359271;26;20015;-69
2024/04/12 01:18:33;;;;;;;21.38;10.80;;;;;;;4.48;100.00;98208.38;5393323;26;19999;-69
2024/04/12 01:21:10;;;;;;;19.92;10.93;;;;;;;4.63;100.00;98196.56;5364010;26;20454;-66
2024/04/12 01:23:48;;;;;;;21.48;11.43;;;;;;;4.64;100.00;98200.88;5361737;26;20011;-67
2024/04/12 01:26:17;;;;;;;18.13;10.98;;;;;;;4.62;100.00;98194.13;5342843;26;20004;-68
2024/04/12 01:28:43;;;;;;;20.13;12.17;;;;;;;4.62;100.00;98200.38;5364919;26;20538;-68
2024/04/12 01:31:17;;;;;;;17.60;11.00;;;;;;;4.41;100.00;98199.78;5370185;26;20074;-66
2024/04/12 01:33:50;;;;;;;20.65;12.23;;;;;;;4.37;100.00;98201.47;5360824;26;20015;-67
2024/04/12 01:36:19;;;;;;;19.45;11.50;;;;;;;4.30;100.00;98195.59;5351605;26;20903;-66
2024/04/12 01:38:57;;;;;;;20.27;12.50;;;;;;;4.27;100.00;98197.00;5359389;26;20355;-67
2024/04/12 01:41:27;;;;;;;22.73;11.50;;;;;;;4.30;100.00;98199.09;5356084;26;20554;-67
2024/04/12 01:43:53;;;;;;;18.33;11.38;;;;;;;4.24;100.00;98200.28;5360489;26;20336;-67
2024/04/12 01:46:26;;;;;;;17.95;11.23;;;;;;;4.17;100.00;98208.75;5352794;26;20000;-66
2024/04/12 01:48:54;;;;;;;16.33;11.40;;;;;;;4.15;100.00;98191.16;5359205;26;20553;-66
2024/04/12 01:51:22;;;;;;;17.52;10.38;;;;;;;4.42;100.00;98192.47;5356602;26;20010;-68
2024/04/12 01:53:54;;;;;;;16.83;11.63;;;;;;;4.58;100.00;98188.47;5362163;26;20011;-68
2024/04/12 01:56:22;;;;;;;15.43;11.30;;;;;;;4.54;100.00;98195.59;5353057;26;20073;-67
2024/04/12 01:58:49;;;;;;;15.85;10.48;;;;;;;4.51;100.00;98196.97;5359114;26;20012;-68
2024/04/12 02:01:16;;;;;;;15.48;10.77;;;;;;;4.62;100.00;98194.94;5354499;26;20015;-68
2024/04/12 02:03:44;;;;;;;13.30;9.50;;;;;;;4.68;100.00;98192.97;5366667;26;20087;-68
2024/04/12 02:06:15;;;;;;;15.23;9.90;;;;;;;4.77;100.00;98202.88;5352211;26;20000;-66
2024/04/12 02:08:41;;;;;;;18.40;10.38;;;;;;;4.76;100.00;98193.13;5380639;26;20000;-67
2024/04/12 02:11:07;;;;;;;14.73;9.40;;;;;;;4.79;100.00;98202.59;5350991;26;20029;-67
2024/04/12 02:13:36;;;;;;;17.98;9.30;;;;;;;4.93;100.00;98198.06;5357171;26;20055;-67
2024/04/12 02:16:02;;;;;;;14.57;9.18;;;;;;;5.06;100.00;98195.69;5365131;26;20018;-66
2024/04/12 02:18:33;;;;;;;13.35;9.15;;;;;;;5.04;100.00;98195.19;5359706;26;20000;-67
2024/04/12 02:21:05;;;;;;;16.17;8.95;;;;;;;4.91;100.00;98196.72;5360453;26;19996;-67
2024/04/12 02:23:34;;;;;;;15.02;8.35;;;;;;;4.73;100.00;98201.03;5357344;26;20000;-67
2024/04/12 02:26:01;;;;;;;13.35;8.77;;;;;;;4.75;100.00;98207.81;5358682;26;19999;-67
2024/04/12 02:28:26;;;;;;;16.25;9.20;;;;;;;4.56;100.00;98207.75;5358487;26;20544;-67
2024/04/12 02:30:54;;;;;;;14.18;8.48;;;;;;;4.50;100.00;98219.78;5365674;26;20012;-66
2024/04/12 02:33:21;;;;;;;14.70;8.10;;;;;;;4.56;100.00;98213.19;5354261;26;20022;-66
2024/04/12 02:35:59;;;;;;;14.38;8.10;;;;;;;4.66;100.00;98209.53;5361222;26;20389;-66
2024/04/12 02:38:26;;;;;;;12.50;7.15;;;;;;;4.59;100.00;98211.78;5353558;26;20956;-67
2024/04/12 02:40:52;;;;;;;10.93;6.88;;;;;;;4.58;100.00;98208.28;5367073;26;20438;-65
2024/04/12 02:43:18;;;;;;;11.70;7.72;;;;;;;4.66;100.00;98214.97;5357886;26;20439;-66
2024/04/12 02:45:55;;;;;;;10.23;7.47;;;;;;;4.68;100.00;98212.78;5369513;26;20450;-66
2024/04/12 02:48:21;;;;;;;14.15;7.93;;;;;;;4.44;100.00;98215.50;5354002;26;20622;-66
2024/04/12 02:50:53;;;;;;;13.40;8.35;;;;;;;4.46;100.00;98209.78;5361954;26;20004;-66
2024/04/12 02:53:26;;;;;;;14.32;7.85;;;;;;;4.54;100.00;98211.88;5337827;26;20015;-66
2024/04/12 02:56:01;;;;;;;14.38;8.30;;;;;;;4.49;100.00;98210.03;5376559;26;20015;-66
2024/04/12 02:58:39;;;;;;;10.82;7.22;;;;;;;4.41;100.00;98213.34;5358827;26;20443;-67
2024/04/12 03:01:16;;;;;;;13.77;8.18;;;;;;;4.05;100.00;98212.94;5367022;26;20050;-66
2024/04/12 03:03:59;;;;;;;11.48;8.05;;;;;;;3.91;100.00;98218.25;5362814;26;20413;-67
2024/04/12 03:06:27;;;;;;;15.73;8.80;;;;;;;4.14;100.00;98217.47;5317320;26;20006;-66
2024/04/12 03:08:59;;;;;;;12.50;8.88;;;;;;;4.14;100.00;98213.94;5380395;26;20010;-66
2024/04/12 03:11:26;;;;;;;14.38;9.25;;;;;;;3.97;100.00;98211.69;5352370;26;20015;-67
2024/04/12 03:14:04;;;;;;;16.33;9.52;;;;;;;3.69;100.00;98211.41;5373021;26;20883;-67
2024/04/12 03:16:31;;;;;;;14.20;9.63;;;;;;;3.54;100.00;98223.16;5362517;26;20008;-67
2024/04/12 03:18:57;;;;;;;17.65;10.85;;;;;;;3.43;100.00;98216.22;5393132;26;20560;-67
2024/04/12 03:21:28;;;;;;;20.00;10.90;;;;;;;3.40;100.00;98225.72;5372953;26;20001;-67
2024/04/12 03:23:55;;;;;;;15.27;10.15;;;;;;;3.36;100.00;98221.94;5388970;26;20047;-67
2024/04/12 03:26:24;;;;;;;14.05;10.45;;;;;;;3.36;100.00;98219.22;5353390;26;20036;-67
2024/04/12 03:28:59;;;;;;;18.03;10.87;;;;;;;3.49;100.00;98225.09;5360260;26;20012;-67
2024/04/12 03:31:26;;;;;;;21.02;10.98;;;;;;;3.64;100.00;98220.38;5352907;26;19997;-67
2024/04/12 03:33:54;;;;;;;17.20;11.05;;;;;;;3.61;100.00;98225.53;5360469;26;20032;-71
2024/04/12 03:36:56;;;;;;;18.27;11.93;;;;;;;3.49;100.00;98234.03;5364998;26;20000;-67
2024/04/12 03:41:50;;;;;;;21.65;12.50;;;;;;;3.24;100.00;98237.72;5382886;26;20004;-68
2024/04/12 03:44:18;;;;;;;24.42;12.60;;;;;;;3.19;100.00;98238.56;5368083;26;20028;-67
2024/04/12 03:46:51;;;;;;;19.65;12.25;;;;;;;3.23;100.00;98239.63;5379379;26;20012;-67
2024/04/12 03:49:20;;;;;;;18.67;11.32;;;;;;;3.42;100.00;98228.13;5380031;26;20012;-67
2024/04/12 03:51:54;;;;;;;17.05;11.30;;;;;;;3.41;100.00;98231.94;5370561;26;20010;-67
2024/04/12 03:54:21;;;;;;;18.80;11.43;;;;;;;3.25;100.00;98225.81;5362967;26;20018;-66
2024/04/12 03:56:56;;;;;;;18.60;12.20;;;;;;;3.12;100.00;98229.16;5387216;26;19996;-67
2024/04/12 03:59:29;;;;;;;19.92;12.95;;;;;;;3.05;100.00;98229.47;5356690;26;20559;-67
2024/04/12 04:01:55;;;;;;;21.70;14.18;;;;;;;2.92;100.00;98230.06;5375281;26;20089;-67
2024/04/12 04:04:37;;;;;;;26.10;13.95;;;;;;;2.89;100.00;98236.06;5352683;26;20721;-67
2024/04/12 04:07:03;;;;;;;23.42;12.90;;;;;;;2.87;100.00;98228.22;5353113;26;20416;-68
2024/04/12 04:09:28;;;;;;;16.75;12.13;;;;;;;2.85;100.00;98239.31;5360932;26;20014;-67
2024/04/12 04:11:55;;;;;;;21.42;11.98;;;;;;;2.82;100.00;98237.16;5365201;26;19996;-67
2024/04/12 04:14:25;;;;;;;19.35;11.55;;;;;;;2.83;100.00;98237.97;5352014;26;20016;-67
2024/04/12 04:17:00;;;;;;;18.83;11.65;;;;;;;2.95;100.00;98248.47;5376973;26;20008;-68
2024/04/12 04:19:33;;;;;;;17.13;10.70;;;;;;;2.99;100.00;98249.50;5380241;26;20000;-67
2024/04/12 04:22:03;;;;;;;17.17;11.57;;;;;;;2.89;100.00;98244.97;5374982;26;20045;-67
2024/04/12 04:24:38;;;;;;;18.58;12.13;;;;;;;2.86;100.00;98249.06;5358992;26;20000;-67
2024/04/12 04:27:08;;;;;;;16.30;10.27;;;;;;;2.92;100.00;98247.13;5353279;26;20012;-67
2024/04/12 04:29:35;;;;;;;16.83;10.07;;;;;;;3.17;100.00;98248.06;5329332;26;20011;-67
2024/04/12 04:32:00;;;;;;;18.50;11.18;;;;;;;3.35;100.00;98249.28;5357375;26;20339;-66
2024/04/12 04:34:27;;;;;;;18.33;10.40;;;;;;;3.24;100.00;98243.97;5352169;26;20015;-66
2024/04/12 04:36:56;;;;;;;19.40;10.48;;;;;;;3.21;100.00;98241.81;5361684;26;20082;-67
2024/04/12 04:39:23;;;;;;;14.35;9.73;;;;;;;3.12;100.00;98242.69;5357572;26;20891;-65
2024/04/12 04:41:50;;;;;;;14.15;9.50;;;;;;;3.05;100.00;98245.69;5377933;26;20036;-67
2024/04/12 04:44:16;;;;;;;17.38;10.18;;;;;;;2.96;100.00;98247.38;5371874;26;19996;-67
2024/04/12 04:46:45;;;;;;;16.23;10.50;;;;;;;2.98;100.00;98246.00;5377186;26;19999;-66
2024/04/12 04:49:15;;;;;;;15.48;9.30;;;;;;;3.06;100.00;98250.84;5357599;26;20008;-67
2024/04/12 04:51:41;;;;;;;18.00;10.15;;;;;;;3.08;100.00;98250.56;5359842;26;20062;-67
2024/04/12 04:54:11;;;;;;;15.43;9.77;;;;;;;3.03;100.00;98245.97;5354431;26;20008;-64
2024/04/12 04:56:45;;;;;;;15.70;10.15;;;;;;;3.00;100.00;98248.44;5334296;26;20480;-66
2024/04/12 04:59:28;;;;;;;19.05;9.98;;;;;;;3.03;100.00;98245.19;5348265;26;20004;-67
2024/04/12 05:01:54;;;;;;;15.85;9.27;;;;;;;3.12;100.00;98240.78;5373135;26;20812;-66
2024/04/12 05:04:21;;;;;;;13.30;9.30;;;;;;;3.43;100.00;98251.41;5354003;26;20014;-67
2024/04/12 05:06:52;;;;;;;15.88;9.95;;;;;;;3.74;100.00;98254.69;5359070;26;20000;-65
2024/04/12 05:09:19;;;;;;;17.05;9.63;;;;;;;4.05;100.00;98256.31;5366570;26;20063;-65
2024/04/12 05:11:45;;;;;;;20.75;10.30;;;;;;;4.30;100.00;98255.25;5375409;26;20000;-68
2024/04/12 05:14:46;;;;;;;13.65;9.45;;;;;;;4.65;100.00;98256.78;5367234;26;20000;-67
2024/04/12 05:17:07;;;;;;;14.85;8.82;;;;;;;5.51;100.00;98259.44;5385290;26;20383;-68
2024/04/12 05:19:40;;;;;;;13.63;8.32;;;;;;;6.05;100.00;98259.13;5369178;26;20342;-67
2024/04/12 05:22:13;;;;;;;15.55;8.05;;;;;;;6.56;100.00;98251.94;5351172;26;20059;-67
2024/04/12 05:24:42;;;;;;;14.10;8.65;;;;;;;6.92;100.00;98256.69;5358903;26;20007;-67
2024/04/12 05:27:10;;;;;;;15.75;9.13;;;;;;;6.19;100.00;98253.72;5349728;26;20011;-66
2024/04/12 05:29:35;;;;;;;15.57;8.98;;;;;;;6.07;100.00;98248.78;5357991;26;20043;-67
2024/04/12 05:32:01;;;;;;;16.70;9.32;;;;;;;6.40;100.00;98252.22;5354898;26;20033;-68
2024/04/12 05:34:27;;;;;;;15.38;9.30;;;;;;;7.52;100.00;98248.25;5354540;26;20001;-67
2024/04/12 05:37:03;;;;;;;12.20;7.65;;;;;;;8.51;100.00;98248.22;5359310;26;20000;-66
2024/04/12 05:39:35;;;;;;;24.35;7.40;;;;;;;9.65;100.00;98252.00;5379268;26;20011;-67
2024/04/12 05:42:05;;;;;;;12.85;7.30;;;;;;;10.41;100.00;98264.28;5329590;26;20019;-67
2024/04/12 05:44:34;;;;;;;12.43;6.50;;;;;;;11.89;100.00;98261.78;5361228;26;20093;-67
2024/04/12 05:47:09;;;;;;;9.30;5.50;;;;;;;12.89;98.02;98267.16;5372664;26;20020;-68
2024/04/12 05:49:36;;;;;;;15.43;5.85;;;;;;;13.00;96.79;98262.84;5361332;26;20407;-68
2024/04/12 05:52:02;;;;;;;21.48;7.38;;;;;;;13.14;90.18;98271.53;5357706;26;20000;-69
2024/04/12 05:54:39;;;;;;;13.07;6.75;;;;;;;13.15;98.86;98261.31;5361907;26;20000;-68
2024/04/12 05:57:06;;;;;;;11.25;5.82;;;;;;;12.70;96.82;98262.25;5354958;26;20010;-68
2024/04/12 05:59:32;;;;;;;12.02;6.10;;;;;;;12.93;100.00;98262.59;5367963;26;20012;-68
2024/04/12 06:02:01;;;;;;;12.18;6.90;;;;;;;13.12;98.30;98259.25;5400464;21;20000;-71
2024/04/12 06:04:27;;;;;;;14.50;7.57;;;;;;;11.74;100.00;98257.69;5385615;26;20093;-70
2024/04/12 06:06:54;;;;;;;12.80;8.65;;;;;;;11.91;100.00;98251.28;5392473;26;20000;-69
2024/04/12 06:09:20;;;;;;;16.35;8.75;;;;;;;11.28;100.00;98249.34;5369283;26;20429;-70
2024/04/12 06:11:54;;;;;;;18.73;8.52;;;;;;;12.70;100.00;98254.00;5376829;26;20078;-70
2024/04/12 06:14:24;;;;;;;14.05;7.32;;;;;;;13.79;95.69;98250.66;5355014;26;20023;-70
2024/04/12 06:16:56;;;;;;;15.13;7.65;;;;;;;14.07;94.40;98258.91;5369695;26;20028;-69
2024/04/12 06:19:26;;;;;;;15.02;8.00;;;;;;;14.55;90.76;98257.03;5361590;26;20015;-70
2024/04/12 06:21:52;;;;;;;13.68;8.63;;;;;;;13.29;100.00;98248.00;5331361;26;20008;-70
2024/04/12 06:24:37;;;;;;;13.85;8.13;;;;;;;14.17;97.07;98252.09;5375854;26;20014;-70
2024/04/12 06:27:03;;;;;;;17.38;8.80;;;;;;;14.42;96.61;98252.75;5346613;26;20012;-67
2024/04/12 06:29:29;;;;;;;18.10;9.90;;;;;;;13.72;100.00;98252.06;5359775;26;20004;-69
2024/04/12 06:31:55;;;;;;;14.25;9.27;;;;;;;13.32;100.00;98254.78;5381997;26;20000;-70
2024/04/12 06:34:22;;;;;;;16.70;10.00;;;;;;;13.67;100.00;98252.28;5391065;26;20041;-69
2024/04/12 06:36:55;;;;;;;15.38;9.93;;;;;;;13.06;100.00;98250.44;5375293;26;20011;-68
2024/04/12 06:39:27;;;;;;;14.98;9.77;;;;;;;14.46;100.00;98251.69;5352547;26;20012;-69
2024/04/12 06:41:57;;;;;;;15.20;9.50;;;;;;;15.73;89.92;98264.50;5363216;26;20348;-70
2024/04/12 06:44:24;;;;;;;17.67;8.95;;;;;;;15.95;81.05;98262.22;5339892;26;20070;-70
2024/04/12 06:46:57;;;;;;;19.30;10.38;;;;;;;16.36;83.31;98251.56;5362025;26;20431;-71
2024/04/12 06:49:29;;;;;;;14.90;8.13;;;;;;;18.41;72.34;98255.28;5333600;26;20309;-70
2024/04/12 06:52:09;;;;;;;14.88;9.18;;;;;;;19.60;62.61;98257.03;5367316;26;20728;-68
2024/04/12 06:54:41;;;;;;;13.57;8.88;;;;;;;18.58;68.07;98253.84;5374235;26;20423;-69
2024/04/12 06:57:08;;;;;;;14.35;8.30;;;;;;;19.85;59.12;98259.94;5359824;26;20436;-69
2024/04/12 06:59:40;;;;;;;11.40;8.60;;;;;;;16.34;80.43;98240.06;5387668;26;20050;-71
2024/04/12 07:02:07;;;;;;;12.80;9.30;;;;;;;14.53;100.00;98240.84;5326924;26;20583;-70
2024/04/12 07:04:32;;;;;;;12.13;9.60;;;;;;;12.84;100.00;98243.47;5359235;26;20745;-68
2024/04/12 07:07:00;;;;;;;15.15;9.32;;;;;;;15.58;99.81;98237.78;5359609;26;20011;-68
2024/04/12 07:09:25;;;;;;;12.52;9.15;;;;;;;17.19;84.31;98242.66;5350974;26;20000;-68
2024/04/12 07:11:53;;;;;;;16.08;9.02;;;;;;;18.76;69.02;98245.69;5360943;26;20019;-68
2024/04/12 07:14:22;;;;;;;15.43;9.60;;;;;;;18.64;68.38;98244.03;5357763;26;20497;-69
2024/04/12 07:16:53;;;;;;;12.75;8.77;;;;;;;18.82;65.76;98229.53;5368870;26;20102;-68
2024/04/12 07:19:23;;;;;;;14.05;9.70;;;;;;;19.02;64.72;98230.09;5321618;26;20001;-68
2024/04/12 07:21:54;;;;;;;15.02;9.38;;;;;;;19.65;62.05;98231.63;5359083;26;20000;-66
2024/04/12 07:24:23;;;;;;;10.93;8.85;;;;;;;18.84;61.70;98239.06;5353797;26;20016;-67
2024/04/12 07:26:54;;;;;;;12.68;8.45;;;;;;;17.48;69.12;98235.56;5373729;26;20027;-66
2024/04/12 07:29:21;;;;;;;12.40;8.95;;;;;;;17.65;67.49;98242.50;5381883;26;20504;-68
2024/04/12 07:31:53;;;;;;;16.45;9.68;;;;;;;18.00;66.79;98238.59;5361879;26;20000;-67
2024/04/12 07:34:18;;;;;;;15.70;10.30;;;;;;;15.67;86.82;98239.13;5353424;26;20012;-67
2024/04/12 07:36:44;;;;;;;15.57;10.50;;;;;;;16.54;83.19;98247.13;5360232;26;20719;-67
2024/04/12 07:39:15;;;;;;;13.65;9.32;;;;;;;17.43;79.51;98251.69;5350943;26;20000;-68
2024/04/12 07:41:45;;;;;;;13.13;9.13;;;;;;;18.48;66.77;98262.91;5362226;26;20073;-68
2024/04/12 07:44:13;;;;;;;14.18;10.32;;;;;;;16.24;81.76;98263.56;5351538;26;19997;-68
2024/04/12 07:46:48;;;;;;;13.32;9.15;;;;;;;17.54;78.01;98263.75;5360372;26;20000;-66
2024/04/12 07:49:14;;;;;;;18.50;15.50;;;;;;;19.63;62.26;98272.91;5353022;26;20004;-67
2024/04/12 07:51:39;;;;;;;16.98;10.32;;;;;;;15.99;84.03;98265.84;5359434;26;20011;-66
2024/04/12 07:54:06;;;;;;;14.15;10.50;;;;;;;16.46;87.12;98263.97;5352221;26;20000;-66
2024/04/12 07:56:37;;;;;;;14.07;9.20;;;;;;;19.75;65.00;98273.78;5378367;26;20001;-66
2024/04/12 08:02:05;;;;;;;11.60;7.57;;;;;;;21.72;52.68;98282.44;5355315;26;20000;-66
2024/04/12 08:04:36;;;;;;;13.93;8.07;;;;;;;22.36;49.99;98288.97;5360028;26;20453;-68
2024/04/12 08:07:06;;;;;;;11.90;8.35;;;;;;;19.94;52.33;98284.63;5355917;26;20077;-65
2024/04/12 08:09:35;;;;;;;16.70;9.07;;;;;;;19.40;56.64;98287.06;5360820;26;19996;-66
2024/04/12 08:12:14;;;;;;;18.98;10.35;;;;;;;18.40;62.32;98273.13;5374035;26;20060;-68
2024/04/12 08:14:52;;;;;;;13.55;8.93;;;;;;;20.27;56.04;98276.41;5360699;26;20000;-67
2024/04/12 08:17:39;;;;;;;14.20;10.10;;;;;;;20.91;51.63;98284.88;5352231;26;20095;-67
2024/04/12 08:20:13;;;;;;;14.40;9.88;;;;;;;21.93;47.30;98284.34;5348280;26;20011;-68
2024/04/12 08:22:38;;;;;;;15.40;9.90;;;;;;;22.97;44.00;98287.78;5360201;26;20061;-68
2024/04/12 08:25:06;;;;;;;16.98;10.15;;;;;;;21.43;46.71;98286.44;5335082;26;20008;-65
2024/04/12 08:27:34;;;;;;;14.65;9.57;;;;;;;20.87;50.50;98292.44;5360063;26;20512;-66
2024/04/12 08:30:00;;;;;;;13.32;8.98;;;;;;;20.66;52.35;98287.63;5360077;26;20011;-65
2024/04/12 08:32:31;;;;;;;16.08;9.95;;;;;;;20.26;53.33;98281.16;5352719;26;19996;-66
2024/04/12 08:34:58;;;;;;;14.65;10.43;;;;;;;19.63;59.77;98269.34;5359424;26;20000;-67
2024/04/12 08:37:30;;;;;;;14.15;9.50;;;;;;;20.62;53.74;98270.16;5351192;26;19996;-66
2024/04/12 08:39:57;;;;;;;13.65;10.18;;;;;;;20.84;52.15;98273.75;5373176;26;20825;-67
2024/04/12 08:42:29;;;;;;;17.45;11.02;;;;;;;19.76;54.92;98256.72;5353011;26;20207;-67
2024/04/12 08:44:58;;;;;;;16.10;10.73;;;;;;;19.46;56.11;98254.16;5375186;26;20078;-67
2024/04/12 08:50:03;;;;;;;14.85;10.52;;;;;;;21.32;52.64;98242.66;5368482;26;20046;-67
2024/04/12 08:52:32;;;;;;;20.90;10.60;;;;;;;21.27;52.49;98245.06;5346704;26;20679;-68
2024/04/12 08:54:59;;;;;;;14.80;10.75;;;;;;;21.34;50.44;98248.63;5360451;26;20000;-68
2024/04/12 08:57:27;;;;;;;14.10;9.70;;;;;;;22.29;49.85;98238.75;5351645;26;20015;-67
2024/04/12 08:59:54;;;;;;;13.82;9.70;;;;;;;22.95;44.88;98243.47;5360054;26;20004;-68
2024/04/12 09:02:22;;;;;;;14.52;9.65;;;;;;;24.02;42.97;98252.81;5351368;26;20572;-68
2024/04/12 09:04:47;;;;;;;13.55;10.02;;;;;;;20.13;52.25;98240.97;5359738;26;20005;-67
2024/04/12 09:07:14;;;;;;;17.75;10.80;;;;;;;18.99;59.92;98228.84;5369460;26;20016;-67
2024/04/12 09:09:40;;;;;;;13.55;10.40;;;;;;;20.84;54.53;98233.97;5368571;26;20053;-68
2024/04/12 09:12:12;;;;;;;15.43;10.07;;;;;;;21.58;51.39;98237.84;5365602;26;20006;-68
2024/04/12 09:14:40;;;;;;;13.02;9.68;;;;;;;21.61;53.62;98237.06;5389695;26;20000;-67
2024/04/12 09:17:14;;;;;;;15.52;9.52;;;;;;;21.32;54.61;98237.09;5353928;26;20011;-68
2024/04/12 09:19:40;;;;;;;12.65;9.23;;;;;;;20.56;57.54;98235.50;5360030;26;20626;-67
2024/04/12 09:22:09;;;;;;;15.57;10.15;;;;;;;20.15;57.68;98236.63;5336496;26;20008;-65
2024/04/12 09:24:39;;;;;;;19.55;10.55;;;;;;;20.18;58.36;98238.59;5373095;26;20000;-68
2024/04/12 09:27:09;;;;;;;15.07;9.77;;;;;;;20.39;60.19;98239.84;5366471;26;20015;-66
2024/04/12 09:29:43;;;;;;;14.02;10.10;;;;;;;20.78;58.10;98247.50;5358330;26;20356;-66
2024/04/12 09:34:55;;;;;;;15.00;10.65;;;;;;;20.01;60.66;98242.94;5373518;26;20004;-67
2024/04/12 09:37:38;;;;;;;14.40;9.52;;;;;;;20.17;58.68;98241.81;5323693;26;20012;-67
2024/04/12 09:40:16;;;;;;;14.23;10.23;;;;;;;20.67;57.15;98252.25;5355383;26;20789;-65
2024/04/12 09:43:36;;;;;;;16.33;10.82;;;;;;;21.03;57.05;98243.88;5373289;26;20040;-65
2024/04/12 09:45:45;;;;;;;19.17;10.95;;;;;;;20.37;58.29;98248.59;5369812;26;20066;-67
2024/04/12 10:38:09;;;;;;;13.50;10.55;;;;;;;20.65;58.00;98193.38;5353772;26;20004;-66
2024/04/12 10:40:36;;;;;;;15.02;10.50;;;;;;;21.02;57.59;98190.19;5368981;26;20011;-67
2024/04/12 10:43:04;;;;;;;13.52;9.60;;;;;;;21.29;55.95;98173.81;5335841;26;20012;-64
2024/04/12 10:45:30;;;;;;;14.25;9.45;;;;;;;21.19;54.80;98180.19;5317796;26;20012;-65
2024/04/12 10:47:56;;;;;;;14.10;9.68;;;;;;;21.58;54.20;98174.53;5362124;26;20011;-66
2024/04/12 10:50:23;;;;;;;13.82;7.57;;;;;;;21.84;49.99;98185.56;5322904;26;20239;-67
2024/04/12 10:52:51;;;;;;;12.23;6.20;;;;;;;20.79;52.41;98180.25;5364069;26;20460;-66
2024/04/12 10:55:19;;;;;;;10.65;7.07;;;;;;;20.76;52.96;98169.94;5354140;26;20083;-66
2024/04/12 10:57:49;;;;;;;9.70;6.38;;;;;;;21.20;51.79;98173.44;5377857;26;20453;-66
2024/04/12 11:00:16;;;;;;;13.02;7.13;;;;;;;20.05;53.53;98173.41;5353564;26;20059;-66
2024/04/12 11:02:46;;;;;;;8.75;6.38;;;;;;;21.33;53.47;98166.22;5330779;26;20743;-67
2024/04/12 11:07:51;;;;;;;9.77;5.85;;;;;;;21.46;52.24;98163.81;5361447;26;20008;-65
2024/04/12 11:10:24;;;;;;;5.55;3.42;;;;;;;21.34;49.46;98165.03;5352697;26;20050;-66
2024/04/12 11:12:59;;;;;;;9.32;4.13;;;;;;;19.92;52.96;98167.44;5360268;26;20004;-67
2024/04/12 11:31:53;;;;;;;6.53;2.90;;;;;;;20.50;53.38;98151.59;5366621;26;20443;-66
2024/04/12 11:34:20;;;;;;;7.90;3.30;;;;;;;20.52;52.78;98156.78;5358340;26;20004;-66
2024/04/12 11:36:45;;;;;;;11.38;4.85;;;;;;;20.76;52.43;98155.19;5373319;26;20010;-67
2024/04/12 11:39:17;;;;;;;9.18;3.70;;;;;;;20.78;51.93;98164.75;5369157;26;19996;-66
2024/04/12 11:41:49;;;;;;;6.78;3.67;;;;;;;20.79;52.88;98157.97;5373536;26;20044;-67
2024/04/12 11:44:17;;;;;;;12.85;4.93;;;;;;;20.27;53.42;98157.56;5354596;26;20377;-67
2024/04/12 11:46:55;;;;;;;10.50;4.57;;;;;;;20.73;54.33;98147.66;5357960;26;20007;-66
2024/04/12 11:49:25;;;;;;;7.90;4.03;;;;;;;20.22;55.37;98138.47;5353296;26;20577;-65
2024/04/12 11:51:55;;;;;;;;;;;;;;;20.17;56.06;98130.53;5362955;26;20083;-67
2024/04/12 11:54:30;;;;;;;10.00;4.85;;;;;;;20.17;56.64;98122.19;5358835;26;20398;-67
2024/04/12 11:56:59;;;;;;;7.57;4.00;;;;;;;20.58;56.23;98113.44;5343183;26;20095;-67
2024/04/12 11:59:29;;;;;;;12.18;4.60;;;;;;;20.95;54.27;98113.00;5353491;26;20008;-67
2024/04/12 12:01:58;;;;;;;7.05;4.03;;;;;;;20.78;56.64;98108.28;5361605;26;20012;-68
2024/04/12 12:04:25;;;;;;;9.35;4.85;;;;;;;20.36;56.90;98112.66;5337087;26;19996;-65
2024/04/12 12:06:51;;;;;;;6.60;3.65;;;;;;;20.89;59.66;98103.47;5362202;26;20011;-67
2024/04/12 12:09:20;;;;;;;11.90;4.45;;;;;;;19.93;57.74;98110.63;5324040;26;20015;-67
2024/04/12 12:11:49;;;;;;;10.23;3.85;;;;;;;20.40;58.99;98110.66;5330090;26;19996;-67
2024/04/12 12:14:15;;;;;;;10.40;3.50;;;;;;;20.39;59.77;98107.09;5369502;26;20000;-67
2024/04/12 12:16:41;;;;;;;7.95;3.85;;;;;;;20.29;57.75;98109.88;5360229;26;20230;-67
2024/04/12 12:19:07;;;;;;;12.73;3.60;;;;;;;20.24;58.49;98106.28;5365562;26;20000;-68
2024/04/12 12:21:33;;;;;;;14.15;4.82;;;;;;;20.21;59.02;98095.16;5360650;26;20340;-66
2024/04/12 12:23:59;;;;;;;12.52;4.80;;;;;;;20.39;60.18;98097.94;5334361;26;20008;-69
2024/04/12 12:26:25;;;;;;;12.68;5.05;;;;;;;20.50;61.27;98093.16;5366261;26;20001;-65
2024/04/12 12:28:50;;;;;;;12.65;4.85;;;;;;;20.59;58.75;98099.13;5362316;26;20008;-67
2024/04/12 12:31:18;;;;;;;11.32;4.85;;;;;;;20.62;59.06;98095.56;5354487;26;20121;-66
2024/04/12 12:33:45;;;;;;;10.38;5.50;;;;;;;20.38;59.34;98096.34;5345376;26;20000;-68
2024/04/12 12:36:11;;;;;;;11.40;5.28;;;;;;;20.28;60.15;98097.94;5322528;26;20074;-65
2024/04/12 12:38:40;;;;;;;9.32;6.00;;;;;;;19.78;63.92;98095.13;5372294;26;20346;-65
2024/04/12 12:41:09;;;;;;;16.58;6.10;;;;;;;20.05;63.41;98092.78;5352837;26;20000;-68
2024/04/12 12:43:34;;;;;;;10.60;6.43;;;;;;;20.24;61.41;98091.59;5344159;26;20005;-66
2024/04/12 12:46:00;;;;;;;10.57;6.22;;;;;;;20.13;62.88;98086.03;5373850;26;20256;-67
2024/04/12 12:48:27;;;;;;;10.40;6.00;;;;;;;19.79;64.85;98091.94;5354546;26;20008;-67
2024/04/12 12:50:54;;;;;;;10.93;5.40;;;;;;;19.60;65.26;98092.25;5360881;26;19996;-68
2024/04/12 12:53:22;;;;;;;12.85;6.50;;;;;;;19.65;67.03;98081.56;5353846;26;20007;-68